Plymouth, California
Current Conditions -  °F | °C
As of 9:35 PM on Saturday 25 Oct 2014 (Local Time) from KPVF Reporting Station
Overcast Overcast  
Wind Chill: 11°   Ceiling: 2900
Heat Index: 11°   Visibility: 10mi
Dew Point:   Wind: 8mph
Humidity: 82%   Direction: 190°S
Pressure: 30.15"   Gusts: NA
Location:  38.48°N, 120.84°W
Report Text: KPVF 260435Z AUTO 19007KT 170V240 10SM FEW015 BKN029 OVC060 11/08 A3015 RMK AO1
Loading
Personal Weather Stations






























Interactive Weather Map
Tropical Storm Tracking
New forecast layout! Learn more

10-Day Weather Forecast

Advertisements
Track Severe Weather on mobile